sensor_id;sensor_type;location;lat;lon;timestamp;pressure;altitude;pressure_sealevel;temperature;humidity
73633;BME280;61927;50.080;14.418;2023-05-09T00:00:43;100239.66;;;10.46;49.41
73633;BME280;61927;50.080;14.418;2023-05-09T00:03:12;100240.81;;;10.41;49.59
73633;BME280;61927;50.080;14.418;2023-05-09T00:05:38;100244.41;;;10.40;49.40
73633;BME280;61927;50.080;14.418;2023-05-09T00:08:04;100241.19;;;10.33;49.73
73633;BME280;61927;50.080;14.418;2023-05-09T00:10:30;100238.69;;;10.30;49.67
73633;BME280;61927;50.080;14.418;2023-05-09T00:12:56;100235.31;;;10.26;50.09
73633;BME280;61927;50.080;14.418;2023-05-09T00:15:23;100235.47;;;10.23;49.81
73633;BME280;61927;50.080;14.418;2023-05-09T00:17:50;100234.69;;;10.21;49.56
73633;BME280;61927;50.080;14.418;2023-05-09T00:20:16;100233.94;;;10.18;49.46
73633;BME280;61927;50.080;14.418;2023-05-09T00:22:42;100238.47;;;10.16;49.54
73633;BME280;61927;50.080;14.418;2023-05-09T00:25:08;100227.00;;;10.15;49.77
73633;BME280;61927;50.080;14.418;2023-05-09T00:27:34;100230.34;;;10.19;49.84
73633;BME280;61927;50.080;14.418;2023-05-09T00:30:00;100239.31;;;10.16;49.92
73633;BME280;61927;50.080;14.418;2023-05-09T00:32:26;100232.38;;;10.14;49.60
73633;BME280;61927;50.080;14.418;2023-05-09T00:34:53;100226.41;;;10.09;49.35
73633;BME280;61927;50.080;14.418;2023-05-09T00:37:19;100229.22;;;10.06;49.44
73633;BME280;61927;50.080;14.418;2023-05-09T00:39:46;100216.91;;;10.04;49.77
73633;BME280;61927;50.080;14.418;2023-05-09T00:42:13;100227.28;;;10.09;49.27
73633;BME280;61927;50.080;14.418;2023-05-09T00:44:38;100221.25;;;10.06;50.01
73633;BME280;61927;50.080;14.418;2023-05-09T00:47:05;100218.53;;;10.07;49.48
73633;BME280;61927;50.080;14.418;2023-05-09T00:49:31;100219.69;;;10.01;49.32
73633;BME280;61927;50.080;14.418;2023-05-09T00:51:57;100222.56;;;9.97;49.32
73633;BME280;61927;50.080;14.418;2023-05-09T00:54:23;100220.97;;;9.93;49.41
73633;BME280;61927;50.080;14.418;2023-05-09T00:56:49;100217.63;;;9.89;49.47
73633;BME280;61927;50.080;14.418;2023-05-09T00:59:15;100213.31;;;9.87;49.24
73633;BME280;61927;50.080;14.418;2023-05-09T01:01:41;100204.88;;;9.79;49.79
73633;BME280;61927;50.080;14.418;2023-05-09T01:04:06;100205.72;;;9.79;50.15
73633;BME280;61927;50.080;14.418;2023-05-09T01:06:58;100210.31;;;9.76;50.01
73633;BME280;61927;50.080;14.418;2023-05-09T01:14:38;100206.22;;;9.68;50.21
73633;BME280;61927;50.080;14.418;2023-05-09T01:17:15;100203.56;;;9.68;50.15
73633;BME280;61927;50.080;14.418;2023-05-09T01:19:53;100205.22;;;9.71;49.82
73633;BME280;61927;50.080;14.418;2023-05-09T01:22:28;100202.72;;;9.68;50.12
73633;BME280;61927;50.080;14.418;2023-05-09T01:30:28;100197.69;;;9.62;50.24
73633;BME280;61927;50.080;14.418;2023-05-09T01:32:58;100195.19;;;9.59;50.71
73633;BME280;61927;50.080;14.418;2023-05-09T01:35:25;100195.25;;;9.57;50.57
73633;BME280;61927;50.080;14.418;2023-05-09T01:37:54;100199.47;;;9.61;50.49
73633;BME280;61927;50.080;14.418;2023-05-09T01:40:22;100208.38;;;9.60;50.33
73633;BME280;61927;50.080;14.418;2023-05-09T01:42:53;100195.25;;;9.57;50.27
73633;BME280;61927;50.080;14.418;2023-05-09T01:45:21;100194.59;;;9.52;50.27
73633;BME280;61927;50.080;14.418;2023-05-09T01:47:49;100191.31;;;9.47;50.72
73633;BME280;61927;50.080;14.418;2023-05-09T01:50:17;100195.81;;;9.45;50.65
73633;BME280;61927;50.080;14.418;2023-05-09T01:52:43;100186.22;;;9.43;50.68
73633;BME280;61927;50.080;14.418;2023-05-09T01:55:13;100183.50;;;9.44;50.76
73633;BME280;61927;50.080;14.418;2023-05-09T01:57:41;100179.78;;;9.48;50.85
73633;BME280;61927;50.080;14.418;2023-05-09T02:00:07;100177.78;;;9.53;50.43
73633;BME280;61927;50.080;14.418;2023-05-09T02:02:35;100180.22;;;9.58;50.36
73633;BME280;61927;50.080;14.418;2023-05-09T02:05:01;100171.91;;;9.47;49.96
73633;BME280;61927;50.080;14.418;2023-05-09T02:07:28;100176.63;;;9.40;50.12
73633;BME280;61927;50.080;14.418;2023-05-09T02:09:54;100178.63;;;9.35;50.06
73633;BME280;61927;50.080;14.418;2023-05-09T02:12:24;100171.94;;;9.26;50.71
73633;BME280;61927;50.080;14.418;2023-05-09T02:14:49;100178.25;;;9.24;50.96
73633;BME280;61927;50.080;14.418;2023-05-09T02:17:16;100181.69;;;9.26;50.81
73633;BME280;61927;50.080;14.418;2023-05-09T02:19:42;100181.81;;;9.23;50.55
73633;BME280;61927;50.080;14.418;2023-05-09T02:22:08;100170.22;;;9.25;50.71
73633;BME280;61927;50.080;14.418;2023-05-09T02:24:35;100164.13;;;9.23;49.93
73633;BME280;61927;50.080;14.418;2023-05-09T02:27:02;100171.28;;;9.21;50.23
73633;BME280;61927;50.080;14.418;2023-05-09T02:29:31;100168.72;;;9.20;50.70
73633;BME280;61927;50.080;14.418;2023-05-09T02:32:10;100158.91;;;9.22;50.62
73633;BME280;61927;50.080;14.418;2023-05-09T02:34:37;100174.34;;;9.12;50.59
73633;BME280;61927;50.080;14.418;2023-05-09T02:37:04;100167.59;;;9.05;50.83
73633;BME280;61927;50.080;14.418;2023-05-09T02:39:30;100168.81;;;8.98;50.69
73633;BME280;61927;50.080;14.418;2023-05-09T02:41:55;100166.34;;;8.93;50.99
73633;BME280;61927;50.080;14.418;2023-05-09T02:44:21;100164.84;;;8.88;50.97
73633;BME280;61927;50.080;14.418;2023-05-09T02:46:47;100170.34;;;8.83;51.34
73633;BME280;61927;50.080;14.418;2023-05-09T02:49:12;100167.16;;;8.75;51.45
73633;BME280;61927;50.080;14.418;2023-05-09T02:51:38;100165.56;;;8.71;51.45
73633;BME280;61927;50.080;14.418;2023-05-09T02:54:03;100163.06;;;8.68;51.77
73633;BME280;61927;50.080;14.418;2023-05-09T02:56:29;100162.13;;;8.69;51.62
73633;BME280;61927;50.080;14.418;2023-05-09T02:58:54;100164.16;;;8.62;51.85
73633;BME280;61927;50.080;14.418;2023-05-09T03:01:20;100159.94;;;8.58;52.12
73633;BME280;61927;50.080;14.418;2023-05-09T03:03:46;100163.56;;;8.56;52.15
73633;BME280;61927;50.080;14.418;2023-05-09T03:06:11;100160.19;;;8.52;52.38
73633;BME280;61927;50.080;14.418;2023-05-09T03:08:38;100153.13;;;8.53;52.20
73633;BME280;61927;50.080;14.418;2023-05-09T03:11:04;100154.03;;;8.52;52.16
73633;BME280;61927;50.080;14.418;2023-05-09T03:13:30;100150.53;;;8.51;52.21
73633;BME280;61927;50.080;14.418;2023-05-09T03:15:55;100155.91;;;8.50;52.17
73633;BME280;61927;50.080;14.418;2023-05-09T03:18:21;100155.91;;;8.50;52.00
73633;BME280;61927;50.080;14.418;2023-05-09T03:20:47;100158.72;;;8.45;52.37
73633;BME280;61927;50.080;14.418;2023-05-09T03:23:12;100163.16;;;8.45;52.17
73633;BME280;61927;50.080;14.418;2023-05-09T03:25:38;100159.78;;;8.41;52.20
73633;BME280;61927;50.080;14.418;2023-05-09T03:28:03;100157.19;;;8.39;52.21
73633;BME280;61927;50.080;14.418;2023-05-09T03:30:29;100157.25;;;8.38;52.56
73633;BME280;61927;50.080;14.418;2023-05-09T03:32:55;100165.25;;;8.36;53.10
73633;BME280;61927;50.080;14.418;2023-05-09T03:35:21;100153.06;;;8.32;52.87
73633;BME280;61927;50.080;14.418;2023-05-09T03:37:46;100156.63;;;8.31;52.95
73633;BME280;61927;50.080;14.418;2023-05-09T03:40:12;100153.97;;;8.31;53.22
73633;BME280;61927;50.080;14.418;2023-05-09T03:42:37;100158.00;;;8.41;53.01
73633;BME280;61927;50.080;14.418;2023-05-09T03:45:04;100151.13;;;8.37;52.68
73633;BME280;61927;50.080;14.418;2023-05-09T03:47:29;100148.59;;;8.34;52.42
73633;BME280;61927;50.080;14.418;2023-05-09T03:49:55;100150.41;;;8.32;53.02
73633;BME280;61927;50.080;14.418;2023-05-09T03:52:20;100148.75;;;8.30;53.08
73633;BME280;61927;50.080;14.418;2023-05-09T03:54:46;100155.09;;;8.26;53.05
73633;BME280;61927;50.080;14.418;2023-05-09T03:57:11;100150.00;;;8.21;53.04
73633;BME280;61927;50.080;14.418;2023-05-09T03:59:37;100148.34;;;8.19;53.24
73633;BME280;61927;50.080;14.418;2023-05-09T04:02:03;100158.91;;;8.19;53.18
73633;BME280;61927;50.080;14.418;2023-05-09T04:04:29;100155.41;;;8.18;53.44
73633;BME280;61927;50.080;14.418;2023-05-09T04:06:54;100148.16;;;8.23;53.20
73633;BME280;61927;50.080;14.418;2023-05-09T04:09:20;100158.53;;;8.28;53.00
73633;BME280;61927;50.080;14.418;2023-05-09T04:11:45;100151.47;;;8.28;52.43
73633;BME280;61927;50.080;14.418;2023-05-09T04:14:11;100146.25;;;8.27;52.74
73633;BME280;61927;50.080;14.418;2023-05-09T04:16:37;100158.72;;;8.23;52.93
73633;BME280;61927;50.080;14.418;2023-05-09T04:19:02;100155.16;;;8.24;52.75
73633;BME280;61927;50.080;14.418;2023-05-09T04:21:28;100154.31;;;8.24;52.98
73633;BME280;61927;50.080;14.418;2023-05-09T04:23:54;100147.28;;;8.23;52.64
73633;BME280;61927;50.080;14.418;2023-05-09T04:26:19;100145.50;;;8.23;53.34
73633;BME280;61927;50.080;14.418;2023-05-09T04:28:47;100149.13;;;8.21;53.39
73633;BME280;61927;50.080;14.418;2023-05-09T04:31:12;100151.91;;;8.18;53.68
73633;BME280;61927;50.080;14.418;2023-05-09T04:33:39;100155.47;;;8.17;53.90
73633;BME280;61927;50.080;14.418;2023-05-09T04:36:04;100148.41;;;8.17;53.84
73633;BME280;61927;50.080;14.418;2023-05-09T04:38:30;100151.97;;;8.16;54.14
73633;BME280;61927;50.080;14.418;2023-05-09T04:40:56;100141.34;;;8.18;54.07
73633;BME280;61927;50.080;14.418;2023-05-09T04:43:23;100144.66;;;8.23;54.38
73633;BME280;61927;50.080;14.418;2023-05-09T04:45:50;100148.94;;;8.25;53.53
73633;BME280;61927;50.080;14.418;2023-05-09T04:48:16;100143.66;;;8.25;53.16
73633;BME280;61927;50.080;14.418;2023-05-09T04:50:41;100148.81;;;8.28;53.27
73633;BME280;61927;50.080;14.418;2023-05-09T04:53:07;100140.03;;;8.28;53.97
73633;BME280;61927;50.080;14.418;2023-05-09T04:55:33;100146.88;;;8.33;53.70
73633;BME280;61927;50.080;14.418;2023-05-09T04:57:59;100137.84;;;8.39;53.61
73633;BME280;61927;50.080;14.418;2023-05-09T05:00:24;100142.13;;;8.41;53.18
73633;BME280;61927;50.080;14.418;2023-05-09T05:02:50;100140.41;;;8.40;52.62
73633;BME280;61927;50.080;14.418;2023-05-09T05:05:15;100148.09;;;8.47;53.36
73633;BME280;61927;50.080;14.418;2023-05-09T05:07:41;100132.44;;;8.62;52.94
73633;BME280;61927;50.080;14.418;2023-05-09T05:10:07;100132.44;;;8.62;51.93
73633;BME280;61927;50.080;14.418;2023-05-09T05:12:33;100132.63;;;8.58;51.66
73633;BME280;61927;50.080;14.418;2023-05-09T05:14:59;100136.19;;;8.57;51.69
73633;BME280;61927;50.080;14.418;2023-05-09T05:17:25;100135.34;;;8.56;52.09
73633;BME280;61927;50.080;14.418;2023-05-09T05:19:53;100135.88;;;8.64;51.99
73633;BME280;61927;50.080;14.418;2023-05-09T05:22:19;100137.44;;;8.68;51.00
73633;BME280;61927;50.080;14.418;2023-05-09T05:24:45;100134.94;;;8.65;50.86
73633;BME280;61927;50.080;14.418;2023-05-09T05:27:10;100133.88;;;8.69;52.10
73633;BME280;61927;50.080;14.418;2023-05-09T05:29:37;100135.53;;;8.72;51.34
73633;BME280;61927;50.080;14.418;2023-05-09T05:32:03;100141.81;;;8.69;50.99
73633;BME280;61927;50.080;14.418;2023-05-09T05:34:29;100140.09;;;8.68;50.74
73633;BME280;61927;50.080;14.418;2023-05-09T05:36:54;100135.47;;;8.73;51.72
73633;BME280;61927;50.080;14.418;2023-05-09T05:39:20;100130.78;;;8.80;51.51
73633;BME280;61927;50.080;14.418;2023-05-09T05:41:46;100133.16;;;8.86;51.74
73633;BME280;61927;50.080;14.418;2023-05-09T05:44:12;100120.72;;;8.88;51.21
73633;BME280;61927;50.080;14.418;2023-05-09T05:46:37;100114.16;;;8.97;51.06
73633;BME280;61927;50.080;14.418;2023-05-09T05:49:03;100115.66;;;9.02;50.99
73633;BME280;61927;50.080;14.418;2023-05-09T05:51:29;100111.09;;;9.06;50.59
73633;BME280;61927;50.080;14.418;2023-05-09T05:53:55;100118.16;;;9.05;50.39
73633;BME280;61927;50.080;14.418;2023-05-09T05:56:21;100112.88;;;9.05;50.17
73633;BME280;61927;50.080;14.418;2023-05-09T05:58:47;100109.03;;;9.13;49.34
73633;BME280;61927;50.080;14.418;2023-05-09T06:01:12;100109.88;;;9.13;49.25
73633;BME280;61927;50.080;14.418;2023-05-09T06:03:38;100111.59;;;9.14;49.22
73633;BME280;61927;50.080;14.418;2023-05-09T06:06:04;100110.66;;;9.15;49.28
73633;BME280;61927;50.080;14.418;2023-05-09T06:08:29;100115.09;;;9.15;49.42
73633;BME280;61927;50.080;14.418;2023-05-09T06:10:55;100111.66;;;9.13;49.88
73633;BME280;61927;50.080;14.418;2023-05-09T06:13:21;100116.81;;;9.16;49.42
73633;BME280;61927;50.080;14.418;2023-05-09T06:15:47;100110.59;;;9.17;49.89
73633;BME280;61927;50.080;14.418;2023-05-09T06:18:12;100106.44;;;9.11;49.83
73633;BME280;61927;50.080;14.418;2023-05-09T06:20:38;100102.72;;;9.15;49.88
73633;BME280;61927;50.080;14.418;2023-05-09T06:23:04;100095.44;;;9.20;49.88
73633;BME280;61927;50.080;14.418;2023-05-09T06:25:29;100095.28;;;9.23;49.43
73633;BME280;61927;50.080;14.418;2023-05-09T06:27:55;100099.38;;;9.30;49.46
73633;BME280;61927;50.080;14.418;2023-05-09T06:30:21;100094.44;;;9.42;49.09
73633;BME280;61927;50.080;14.418;2023-05-09T06:32:46;100093.50;;;9.43;49.28
73633;BME280;61927;50.080;14.418;2023-05-09T06:35:12;100085.41;;;9.46;49.06
73633;BME280;61927;50.080;14.418;2023-05-09T06:37:38;100083.47;;;9.49;48.94
73633;BME280;61927;50.080;14.418;2023-05-09T06:40:04;100079.91;;;9.50;48.71
73633;BME280;61927;50.080;14.418;2023-05-09T06:42:30;100086.34;;;9.45;49.05
73633;BME280;61927;50.080;14.418;2023-05-09T06:44:58;100078.63;;;9.40;49.25
73633;BME280;61927;50.080;14.418;2023-05-09T06:47:23;100079.75;;;9.53;49.65
73633;BME280;61927;50.080;14.418;2023-05-09T06:49:49;100069.66;;;9.61;49.30
73633;BME280;61927;50.080;14.418;2023-05-09T06:52:15;100066.94;;;9.63;49.20
73633;BME280;61927;50.080;14.418;2023-05-09T06:54:41;100073.00;;;9.65;48.92
73633;BME280;61927;50.080;14.418;2023-05-09T06:57:06;100060.69;;;9.64;48.69
73633;BME280;61927;50.080;14.418;2023-05-09T06:59:32;100064.28;;;9.63;49.31
73633;BME280;61927;50.080;14.418;2023-05-09T07:01:58;100057.38;;;9.78;49.92
73633;BME280;61927;50.080;14.418;2023-05-09T07:04:23;100051.47;;;9.90;49.63
73633;BME280;61927;50.080;14.418;2023-05-09T07:06:49;100048.38;;;9.99;48.55
73633;BME280;61927;50.080;14.418;2023-05-09T07:09:18;100047.66;;;9.95;48.86
73633;BME280;61927;50.080;14.418;2023-05-09T07:11:45;100049.38;;;9.96;48.71
73633;BME280;61927;50.080;14.418;2023-05-09T07:14:11;100043.06;;;9.99;49.21
73633;BME280;61927;50.080;14.418;2023-05-09T07:16:37;100043.75;;;10.02;49.10
73633;BME280;61927;50.080;14.418;2023-05-09T07:19:02;100039.78;;;10.11;49.92
73633;BME280;61927;50.080;14.418;2023-05-09T07:21:28;100041.53;;;10.29;48.54
73633;BME280;61927;50.080;14.418;2023-05-09T07:23:54;100041.06;;;10.39;48.52
73633;BME280;61927;50.080;14.418;2023-05-09T07:26:19;100039.13;;;10.42;47.62
73633;BME280;61927;50.080;14.418;2023-05-09T07:28:46;100037.16;;;10.46;48.12
73633;BME280;61927;50.080;14.418;2023-05-09T07:31:11;100035.28;;;10.48;48.28
73633;BME280;61927;50.080;14.418;2023-05-09T07:33:37;100026.53;;;10.46;48.14
73633;BME280;61927;50.080;14.418;2023-05-09T07:36:05;100030.34;;;10.57;47.61
73633;BME280;61927;50.080;14.418;2023-05-09T07:38:33;100027.47;;;10.62;46.87
73633;BME280;61927;50.080;14.418;2023-05-09T07:40:59;100018.81;;;10.58;47.12
73633;BME280;61927;50.080;14.418;2023-05-09T07:43:24;100012.16;;;10.67;47.48
73633;BME280;61927;50.080;14.418;2023-05-09T07:45:50;100018.06;;;10.72;48.32
73633;BME280;61927;50.080;14.418;2023-05-09T07:48:16;100012.25;;;10.81;48.19
73633;BME280;61927;50.080;14.418;2023-05-09T07:50:41;100006.03;;;10.98;46.64
73633;BME280;61927;50.080;14.418;2023-05-09T07:53:07;99998.59;;;11.05;46.75
73633;BME280;61927;50.080;14.418;2023-05-09T07:55:33;99993.28;;;11.05;46.65
73633;BME280;61927;50.080;14.418;2023-05-09T07:57:59;99980.09;;;11.03;46.89
73633;BME280;61927;50.080;14.418;2023-05-09T08:00:24;99983.28;;;11.10;46.51
73633;BME280;61927;50.080;14.418;2023-05-09T08:02:50;99984.47;;;11.20;46.19
73633;BME280;61927;50.080;14.418;2023-05-09T08:05:16;99979.16;;;11.36;45.54
73633;BME280;61927;50.080;14.418;2023-05-09T08:07:42;99983.69;;;11.33;45.72
73633;BME280;61927;50.080;14.418;2023-05-09T08:10:08;99977.25;;;11.38;45.43
73633;BME280;61927;50.080;14.418;2023-05-09T08:12:34;99974.69;;;11.36;45.67
73633;BME280;61927;50.080;14.418;2023-05-09T08:15:00;99967.66;;;11.35;45.54
73633;BME280;61927;50.080;14.418;2023-05-09T08:17:26;99965.25;;;11.46;44.89
73633;BME280;61927;50.080;14.418;2023-05-09T08:19:52;99967.72;;;11.65;45.33
73633;BME280;61927;50.080;14.418;2023-05-09T08:22:18;99961.72;;;11.77;44.73
73633;BME280;61927;50.080;14.418;2023-05-09T08:24:45;99966.00;;;11.80;44.70
73633;BME280;61927;50.080;14.418;2023-05-09T08:27:11;99963.75;;;11.88;44.36
73633;BME280;61927;50.080;14.418;2023-05-09T08:29:38;99963.28;;;11.95;43.74
73633;BME280;61927;50.080;14.418;2023-05-09T08:32:04;99957.31;;;12.06;43.64
73633;BME280;61927;50.080;14.418;2023-05-09T08:34:30;99956.69;;;12.17;42.38
73633;BME280;61927;50.080;14.418;2023-05-09T08:36:59;99960.19;;;12.17;42.62
73633;BME280;61927;50.080;14.418;2023-05-09T08:39:25;99961.72;;;12.21;43.61
73633;BME280;61927;50.080;14.418;2023-05-09T08:41:53;99953.84;;;12.34;42.93
73633;BME280;61927;50.080;14.418;2023-05-09T08:44:22;99947.78;;;12.46;42.76
73633;BME280;61927;50.080;14.418;2023-05-09T08:46:59;99941.03;;;12.55;42.09
73633;BME280;61927;50.080;14.418;2023-05-09T08:49:25;99938.56;;;12.66;40.91
73633;BME280;61927;50.080;14.418;2023-05-09T08:51:53;99930.84;;;12.76;41.10
73633;BME280;61927;50.080;14.418;2023-05-09T08:54:20;99935.78;;;12.82;41.19
73633;BME280;61927;50.080;14.418;2023-05-09T08:56:46;99927.50;;;12.86;40.66
73633;BME280;61927;50.080;14.418;2023-05-09T08:59:13;99931.13;;;12.85;40.41
73633;BME280;61927;50.080;14.418;2023-05-09T09:01:39;99921.78;;;12.92;40.44
73633;BME280;61927;50.080;14.418;2023-05-09T09:04:06;99921.19;;;13.02;40.61
73633;BME280;61927;50.080;14.418;2023-05-09T09:06:34;99918.44;;;13.03;40.61
73633;BME280;61927;50.080;14.418;2023-05-09T09:09:01;99918.69;;;13.13;40.43
73633;BME280;61927;50.080;14.418;2023-05-09T09:11:32;99898.22;;;13.13;40.80
73633;BME280;61927;50.080;14.418;2023-05-09T09:14:01;99896.25;;;13.17;41.32
73633;BME280;61927;50.080;14.418;2023-05-09T09:16:28;99901.09;;;13.24;40.55
73633;BME280;61927;50.080;14.418;2023-05-09T09:18:54;99892.88;;;13.28;40.34
73633;BME280;61927;50.080;14.418;2023-05-09T09:21:21;99898.75;;;13.33;40.86
73633;BME280;61927;50.080;14.418;2023-05-09T09:23:48;99893.78;;;13.41;40.68
73633;BME280;61927;50.080;14.418;2023-05-09T09:26:14;99892.72;;;13.43;40.50
73633;BME280;61927;50.080;14.418;2023-05-09T09:28:42;99887.19;;;13.46;40.57
73633;BME280;61927;50.080;14.418;2023-05-09T09:31:18;99884.66;;;13.57;40.51
73633;BME280;61927;50.080;14.418;2023-05-09T09:33:44;99875.94;;;13.68;40.58
73633;BME280;61927;50.080;14.418;2023-05-09T09:36:10;99878.69;;;13.67;40.51
73633;BME280;61927;50.080;14.418;2023-05-09T09:38:39;99871.44;;;13.69;41.15
73633;BME280;61927;50.080;14.418;2023-05-09T09:41:05;99865.59;;;13.76;40.74
73633;BME280;61927;50.080;14.418;2023-05-09T09:43:31;99859.31;;;13.77;40.52
73633;BME280;61927;50.080;14.418;2023-05-09T09:46:03;99868.28;;;13.89;40.33
73633;BME280;61927;50.080;14.418;2023-05-09T09:48:30;99859.75;;;13.97;40.10
73633;BME280;61927;50.080;14.418;2023-05-09T09:51:08;99858.88;;;13.96;40.58
73633;BME280;61927;50.080;14.418;2023-05-09T09:53:39;99858.66;;;14.25;39.55
73633;BME280;61927;50.080;14.418;2023-05-09T09:56:06;99851.31;;;14.28;39.26
73633;BME280;61927;50.080;14.418;2023-05-09T09:58:32;99849.81;;;14.24;39.74
73633;BME280;61927;50.080;14.418;2023-05-09T10:01:06;99840.19;;;14.21;39.61
73633;BME280;61927;50.080;14.418;2023-05-09T10:03:43;99845.75;;;14.18;40.21
73633;BME280;61927;50.080;14.418;2023-05-09T10:06:14;99833.91;;;14.22;40.05
73633;BME280;61927;50.080;14.418;2023-05-09T10:08:41;99831.97;;;14.25;39.99
73633;BME280;61927;50.080;14.418;2023-05-09T10:11:08;99826.94;;;14.33;40.79
73633;BME280;61927;50.080;14.418;2023-05-09T10:13:35;99828.22;;;14.52;40.01
73633;BME280;61927;50.080;14.418;2023-05-09T10:16:02;99815.16;;;14.61;40.19
73633;BME280;61927;50.080;14.418;2023-05-09T10:18:29;99811.94;;;14.68;39.90
73633;BME280;61927;50.080;14.418;2023-05-09T10:20:56;99806.78;;;14.78;39.95
73633;BME280;61927;50.080;14.418;2023-05-09T10:23:32;99814.00;;;14.89;39.74
73633;BME280;61927;50.080;14.418;2023-05-09T10:28:31;99797.19;;;14.99;38.61
73633;BME280;61927;50.080;14.418;2023-05-09T10:33:48;99792.50;;;15.14;36.49
73633;BME280;61927;50.080;14.418;2023-05-09T10:36:19;99786.69;;;15.20;36.99
73633;BME280;61927;50.080;14.418;2023-05-09T10:38:50;99775.66;;;15.25;36.94
73633;BME280;61927;50.080;14.418;2023-05-09T10:41:21;99774.06;;;15.22;37.19
73633;BME280;61927;50.080;14.418;2023-05-09T10:43:47;99774.81;;;15.24;36.98
73633;BME280;61927;50.080;14.418;2023-05-09T10:46:14;99766.31;;;15.30;37.31
73633;BME280;61927;50.080;14.418;2023-05-09T10:48:40;99763.63;;;15.30;37.22
73633;BME280;61927;50.080;14.418;2023-05-09T10:51:07;99754.25;;;15.25;37.84
73633;BME280;61927;50.080;14.418;2023-05-09T10:53:47;99766.09;;;15.33;38.61
73633;BME280;61927;50.080;14.418;2023-05-09T10:58:54;99760.91;;;15.54;37.87
73633;BME280;61927;50.080;14.418;2023-05-09T11:01:35;99738.94;;;15.62;38.53
73633;BME280;61927;50.080;14.418;2023-05-09T11:04:11;99728.00;;;15.65;37.14
73633;BME280;61927;50.080;14.418;2023-05-09T11:06:51;99736.25;;;15.62;37.39
73633;BME280;61927;50.080;14.418;2023-05-09T11:09:28;99726.19;;;15.76;37.55
73633;BME280;61927;50.080;14.418;2023-05-09T11:17:04;99714.38;;;16.12;35.72
73633;BME280;61927;50.080;14.418;2023-05-09T11:22:17;99718.75;;;16.25;36.14
73633;BME280;61927;50.080;14.418;2023-05-09T11:25:07;99707.56;;;16.20;36.30
73633;BME280;61927;50.080;14.418;2023-05-09T11:27:50;99700.72;;;16.27;36.92
73633;BME280;61927;50.080;14.418;2023-05-09T11:30:18;99692.44;;;16.30;37.61
73633;BME280;61927;50.080;14.418;2023-05-09T11:32:53;99692.06;;;16.34;36.90
73633;BME280;61927;50.080;14.418;2023-05-09T11:35:21;99690.59;;;16.30;36.55
73633;BME280;61927;50.080;14.418;2023-05-09T11:40:16;99677.75;;;16.56;35.27
73633;BME280;61927;50.080;14.418;2023-05-09T11:42:45;99669.72;;;16.67;34.49
73633;BME280;61927;50.080;14.418;2023-05-09T11:45:12;99666.34;;;16.86;33.77
73633;BME280;61927;50.080;14.418;2023-05-09T11:47:39;99669.34;;;16.93;34.02
73633;BME280;61927;50.080;14.418;2023-05-09T11:50:09;99659.81;;;17.00;34.60
73633;BME280;61927;50.080;14.418;2023-05-09T11:52:36;99658.28;;;17.07;34.29
73633;BME280;61927;50.080;14.418;2023-05-09T11:55:08;99653.66;;;17.09;34.31
73633;BME280;61927;50.080;14.418;2023-05-09T11:57:38;99654.81;;;17.16;34.96
73633;BME280;61927;50.080;14.418;2023-05-09T12:00:05;99643.13;;;17.17;35.20
73633;BME280;61927;50.080;14.418;2023-05-09T12:02:31;99633.50;;;17.15;35.98
73633;BME280;61927;50.080;14.418;2023-05-09T12:05:09;99626.81;;;17.30;36.16
73633;BME280;61927;50.080;14.418;2023-05-09T12:07:36;99616.28;;;17.38;36.46
73633;BME280;61927;50.080;14.418;2023-05-09T12:10:07;99617.16;;;17.48;34.85
73633;BME280;61927;50.080;14.418;2023-05-09T12:12:35;99616.34;;;17.57;34.57
73633;BME280;61927;50.080;14.418;2023-05-09T12:15:02;99610.94;;;17.68;34.39
73633;BME280;61927;50.080;14.418;2023-05-09T12:17:30;99611.38;;;17.73;34.49
73633;BME280;61927;50.080;14.418;2023-05-09T12:19:58;99606.03;;;17.83;35.47
73633;BME280;61927;50.080;14.418;2023-05-09T12:22:24;99590.78;;;17.84;34.15
73633;BME280;61927;50.080;14.418;2023-05-09T12:24:50;99587.50;;;17.80;34.07
73633;BME280;61927;50.080;14.418;2023-05-09T12:27:16;99585.81;;;17.79;33.30
73633;BME280;61927;50.080;14.418;2023-05-09T12:29:43;99580.03;;;17.84;33.62
73633;BME280;61927;50.080;14.418;2023-05-09T12:32:12;99578.75;;;17.78;34.63
73633;BME280;61927;50.080;14.418;2023-05-09T12:34:39;99585.53;;;17.82;34.32
73633;BME280;61927;50.080;14.418;2023-05-09T12:37:13;99575.66;;;17.92;33.40
73633;BME280;61927;50.080;14.418;2023-05-09T12:39:39;99566.34;;;17.96;33.94
73633;BME280;61927;50.080;14.418;2023-05-09T12:42:11;99555.50;;;18.07;34.42
73633;BME280;61927;50.080;14.418;2023-05-09T12:44:36;99553.50;;;18.10;34.60
73633;BME280;61927;50.080;14.418;2023-05-09T12:47:03;99551.53;;;18.12;35.18
73633;BME280;61927;50.080;14.418;2023-05-09T12:49:29;99560.88;;;18.27;34.88
73633;BME280;61927;50.080;14.418;2023-05-09T12:51:59;99550.97;;;18.27;34.84
73633;BME280;61927;50.080;14.418;2023-05-09T12:54:26;99549.69;;;18.31;35.13
73633;BME280;61927;50.080;14.418;2023-05-09T12:56:53;99539.94;;;18.30;35.15
73633;BME280;61927;50.080;14.418;2023-05-09T12:59:30;99539.53;;;18.35;35.19
73633;BME280;61927;50.080;14.418;2023-05-09T13:01:57;99541.91;;;18.48;35.10
73633;BME280;61927;50.080;14.418;2023-05-09T13:04:24;99534.28;;;18.53;34.38
73633;BME280;61927;50.080;14.418;2023-05-09T13:06:55;99534.16;;;18.64;34.58
73633;BME280;61927;50.080;14.418;2023-05-09T13:09:25;99526.06;;;18.74;34.10
73633;BME280;61927;50.080;14.418;2023-05-09T13:11:52;99521.81;;;18.81;34.07
73633;BME280;61927;50.080;14.418;2023-05-09T13:14:19;99512.88;;;18.90;33.56
73633;BME280;61927;50.080;14.418;2023-05-09T13:16:46;99516.66;;;18.97;33.92